Time;durP1;ratioP1;P1;durP2;ratioP2;P2;SDS_P1;SDS_P2;PMS_P1;PMS_P2;Temp;Humidity;BMP_temperature;BMP_pressure;BME280_temperature;BME280_humidity;BME280_pressure;Samples;Min_cycle;Max_cycle;Signal;HPM_P1;HPM_P2
2021/12/01 00:01:19;;;;;;;12.67;9.53;;;10.50;99.90;;;;;;4972291;28;20710;-85
2021/12/01 00:03:45;;;;;;;11.73;9.67;;;10.40;99.90;;;;;;4958878;28;20214;-85
2021/12/01 00:06:11;;;;;;;13.13;10.43;;;10.40;99.90;;;;;;4958952;28;20181;-85
2021/12/01 00:08:37;;;;;;;16.13;11.47;;;10.40;99.90;;;;;;4958225;28;20185;-84
2021/12/01 00:11:03;;;;;;;12.50;10.57;;;10.40;99.90;;;;;;4958711;28;20225;-85
2021/12/01 00:13:32;;;;;;;12.83;10.87;;;10.40;99.90;;;;;;4957734;28;20643;-84
2021/12/01 00:15:58;;;;;;;13.63;9.47;;;10.50;99.90;;;;;;4948029;28;20643;-85
2021/12/01 00:18:24;;;;;;;10.90;9.73;;;10.50;99.90;;;;;;4957330;28;20188;-85
2021/12/01 00:20:49;;;;;;;12.00;9.20;;;10.30;99.90;;;;;;4957054;28;20253;-85
2021/12/01 00:23:15;;;;;;;12.70;11.20;;;10.30;99.90;;;;;;4963298;28;20219;-85
2021/12/01 00:25:42;;;;;;;10.97;8.77;;;10.40;99.90;;;;;;4954038;28;20223;-85
2021/12/01 00:28:08;;;;;;;9.57;8.20;;;10.40;99.90;;;;;;4960578;28;20534;-86
2021/12/01 00:30:36;;;;;;;9.77;8.67;;;10.40;99.90;;;;;;4956408;28;20183;-93
2021/12/01 00:33:02;;;;;;;8.93;7.30;;;10.40;99.90;;;;;;4950660;28;20176;-94
2021/12/01 00:35:28;;;;;;;8.73;6.93;;;10.50;99.90;;;;;;4949878;28;20191;-95
2021/12/01 00:37:54;;;;;;;7.37;6.50;;;10.50;99.90;;;;;;4956177;28;20182;-95
2021/12/01 00:40:20;;;;;;;8.67;6.30;;;10.50;99.90;;;;;;4957683;28;20554;-95
2021/12/01 00:42:46;;;;;;;8.27;5.97;;;10.40;99.90;;;;;;4957686;28;20224;-96
2021/12/01 00:45:18;;;;;;;7.20;5.70;;;10.30;99.90;;;;;;4974963;28;20189;-85
2021/12/01 00:47:50;;;;;;;6.13;5.43;;;10.30;99.90;;;;;;4958191;28;20278;-86
2021/12/01 00:50:23;;;;;;;8.07;5.50;;;10.30;99.90;;;;;;4957763;28;20201;-86
2021/12/01 00:52:52;;;;;;;8.30;5.20;;;10.30;99.90;;;;;;4960970;28;20713;-86
2021/12/01 00:55:19;;;;;;;11.37;5.23;;;10.30;99.90;;;;;;4951771;28;20187;-86
2021/12/01 00:57:45;;;;;;;6.13;5.03;;;10.30;99.90;;;;;;4977076;28;20180;-86
2021/12/01 01:00:12;;;;;;;5.60;5.00;;;10.20;99.90;;;;;;4963274;28;20266;-86
2021/12/01 01:02:38;;;;;;;5.43;4.87;;;10.20;99.90;;;;;;4966138;28;20192;-86
2021/12/01 01:05:05;;;;;;;5.40;4.73;;;10.20;99.90;;;;;;4957387;28;20182;-85
2021/12/01 01:07:30;;;;;;;4.50;3.80;;;10.20;99.90;;;;;;4956823;28;20183;-86
2021/12/01 01:09:59;;;;;;;6.53;4.63;;;10.30;99.90;;;;;;4957302;28;20400;-86
2021/12/01 01:18:08;;;;;;;5.20;3.70;;;10.10;99.90;;;;;;4975005;28;20229;-85
2021/12/01 01:20:35;;;;;;;3.70;3.33;;;10.10;99.90;;;;;;4970607;28;20655;-85
2021/12/01 01:23:01;;;;;;;3.53;3.07;;;10.10;99.90;;;;;;4967379;28;20243;-85
2021/12/01 01:25:28;;;;;;;3.93;2.90;;;10.10;99.90;;;;;;4959902;28;20182;-85
2021/12/01 01:27:54;;;;;;;5.50;3.40;;;10.00;99.90;;;;;;4957685;28;20189;-85
2021/12/01 01:30:20;;;;;;;4.53;3.60;;;10.00;99.90;;;;;;4959421;28;20182;-85
2021/12/01 01:32:46;;;;;;;5.67;4.03;;;10.10;99.90;;;;;;4960192;28;20279;-86
2021/12/01 01:35:13;;;;;;;6.03;3.80;;;10.10;99.90;;;;;;4961190;28;20618;-85
2021/12/01 01:37:39;;;;;;;4.30;3.90;;;10.00;99.90;;;;;;4960900;28;20196;-85
2021/12/01 01:40:06;;;;;;;5.87;4.77;;;9.90;99.90;;;;;;4961195;28;20267;-86
2021/12/01 01:42:31;;;;;;;5.10;4.60;;;9.80;99.90;;;;;;4960693;28;20190;-85
2021/12/01 01:44:57;;;;;;;5.47;4.80;;;9.90;99.90;;;;;;4960879;28;20192;-86
2021/12/01 01:47:23;;;;;;;7.73;5.40;;;9.90;99.90;;;;;;4971490;28;20222;-86
2021/12/01 01:52:34;;;;;;;6.13;5.50;;;9.70;99.90;;;;;;4978111;28;20252;-85
2021/12/01 01:55:00;;;;;;;6.60;5.73;;;9.60;99.90;;;;;;4960402;28;20277;-85
2021/12/01 01:57:26;;;;;;;6.47;5.60;;;9.60;99.90;;;;;;4960565;28;20555;-85
2021/12/01 01:59:51;;;;;;;7.87;5.73;;;9.60;99.90;;;;;;4960368;28;20199;-85
2021/12/01 02:02:18;;;;;;;8.43;6.07;;;9.70;99.90;;;;;;4960449;28;20251;-84
2021/12/01 02:04:43;;;;;;;8.87;6.23;;;9.70;99.90;;;;;;4973231;28;20307;-86
2021/12/01 02:07:09;;;;;;;7.43;6.20;;;9.60;99.90;;;;;;4978702;28;20640;-86
2021/12/01 02:09:35;;;;;;;7.60;6.03;;;9.60;99.90;;;;;;4969221;28;20188;-85
2021/12/01 02:12:02;;;;;;;8.23;6.40;;;9.50;99.90;;;;;;4973838;28;20185;-86
2021/12/01 02:14:29;;;;;;;11.23;6.43;;;9.60;99.90;;;;;;4968852;28;20180;-85
2021/12/01 02:16:56;;;;;;;10.10;6.50;;;9.60;99.90;;;;;;4964730;28;20182;-85
2021/12/01 02:19:22;;;;;;;10.00;6.10;;;9.60;99.90;;;;;;4960620;28;20179;-85
2021/12/01 02:21:48;;;;;;;8.90;6.10;;;9.50;99.90;;;;;;4960155;28;20779;-86
2021/12/01 02:24:16;;;;;;;10.43;6.23;;;9.60;99.90;;;;;;4960078;28;20306;-85
2021/12/01 02:26:47;;;;;;;7.70;6.20;;;9.60;99.90;;;;;;4960448;28;20183;-86
2021/12/01 02:29:17;;;;;;;6.67;5.80;;;9.50;99.90;;;;;;4960538;28;20569;-86
2021/12/01 02:31:44;;;;;;;8.37;6.33;;;9.60;99.90;;;;;;4970476;28;20221;-85
2021/12/01 02:34:13;;;;;;;6.53;5.30;;;9.60;99.90;;;;;;4965516;28;20185;-86
2021/12/01 02:36:40;;;;;;;8.00;5.73;;;9.60;99.90;;;;;;4970258;28;20237;-86
2021/12/01 02:39:11;;;;;;;8.03;5.60;;;9.40;99.90;;;;;;4960141;28;20207;-85
2021/12/01 02:41:37;;;;;;;6.60;5.07;;;9.50;99.90;;;;;;4959784;28;20657;-85
2021/12/01 02:44:05;;;;;;;7.67;5.40;;;9.50;99.90;;;;;;4960152;28;20626;-85
2021/12/01 02:46:31;;;;;;;8.47;5.27;;;9.50;99.90;;;;;;4965337;28;20641;-86
2021/12/01 02:48:57;;;;;;;8.40;5.20;;;9.50;99.90;;;;;;4967896;28;20609;-85
2021/12/01 02:51:27;;;;;;;5.63;4.57;;;9.40;99.90;;;;;;4959852;28;20292;-86
2021/12/01 02:53:53;;;;;;;5.93;4.80;;;9.50;99.90;;;;;;4959985;28;20652;-85
2021/12/01 02:56:24;;;;;;;6.60;4.57;;;9.40;99.90;;;;;;4959688;28;20191;-86
2021/12/01 02:58:51;;;;;;;6.90;4.00;;;9.40;99.90;;;;;;4959737;28;20233;-86
2021/12/01 03:01:19;;;;;;;7.37;4.00;;;9.30;99.90;;;;;;4960557;28;20678;-86
2021/12/01 03:03:46;;;;;;;10.13;4.63;;;9.40;99.90;;;;;;4979096;28;20226;-86
2021/12/01 03:06:12;;;;;;;5.90;4.07;;;9.50;99.90;;;;;;4966032;28;20193;-86
2021/12/01 03:08:41;;;;;;;8.43;4.00;;;9.50;99.90;;;;;;4959407;28;20184;-86
2021/12/01 03:11:07;;;;;;;6.80;4.77;;;9.60;99.90;;;;;;4959730;28;20182;-86
2021/12/01 03:13:33;;;;;;;4.70;3.90;;;9.50;99.90;;;;;;4972725;28;20176;-86
2021/12/01 03:15:59;;;;;;;4.70;3.97;;;9.50;99.90;;;;;;4959967;28;20253;-86
2021/12/01 03:18:26;;;;;;;6.67;3.77;;;9.50;99.90;;;;;;4959396;28;20273;-85
2021/12/01 03:20:53;;;;;;;5.77;3.40;;;9.40;99.90;;;;;;4959327;28;20199;-86
2021/12/01 03:23:20;;;;;;;5.97;3.80;;;9.40;99.90;;;;;;4959228;28;20279;-86
2021/12/01 03:25:46;;;;;;;6.67;3.60;;;9.50;99.90;;;;;;4959404;28;20595;-86
2021/12/01 03:28:12;;;;;;;4.37;3.47;;;9.60;99.90;;;;;;4959154;28;20187;-86
2021/12/01 03:30:39;;;;;;;10.17;3.50;;;9.50;99.90;;;;;;4958858;28;20183;-86
2021/12/01 03:33:08;;;;;;;6.20;3.80;;;9.50;99.90;;;;;;4958919;28;20192;-85
2021/12/01 03:35:36;;;;;;;4.97;3.73;;;9.30;99.90;;;;;;4972872;28;20185;-86
2021/12/01 03:38:02;;;;;;;5.83;3.97;;;9.10;99.90;;;;;;4958870;28;20249;-85
2021/12/01 03:40:28;;;;;;;6.70;4.50;;;8.90;99.90;;;;;;4958867;28;20194;-85
2021/12/01 03:42:53;;;;;;;7.57;4.60;;;8.90;99.90;;;;;;4958771;28;20183;-85
2021/12/01 03:45:19;;;;;;;7.13;4.63;;;8.90;99.90;;;;;;4958762;28;20201;-85
2021/12/01 03:47:46;;;;;;;8.30;4.63;;;8.80;99.90;;;;;;4958349;28;20184;-85
2021/12/01 03:50:12;;;;;;;7.37;5.00;;;8.90;99.90;;;;;;4958557;28;20620;-85
2021/12/01 03:52:38;;;;;;;8.10;4.63;;;8.90;99.90;;;;;;4958017;28;20555;-86
2021/12/01 03:55:05;;;;;;;7.17;4.47;;;8.90;99.90;;;;;;4945381;28;20660;-85
2021/12/01 03:57:32;;;;;;;8.27;4.73;;;8.90;99.90;;;;;;4970561;28;20180;-86
2021/12/01 03:59:58;;;;;;;6.10;3.83;;;8.90;99.90;;;;;;4960200;28;20171;-86
2021/12/01 04:02:24;;;;;;;5.70;3.87;;;9.00;99.90;;;;;;4968984;28;20603;-86
2021/12/01 04:04:49;;;;;;;6.87;3.93;;;9.00;99.90;;;;;;4961942;28;20242;-86
2021/12/01 04:07:15;;;;;;;8.10;4.27;;;9.00;99.90;;;;;;4966763;28;20182;-86
2021/12/01 04:09:43;;;;;;;9.10;4.23;;;9.00;99.90;;;;;;4963699;28;20662;-86
2021/12/01 04:12:09;;;;;;;10.77;5.83;;;9.10;99.90;;;;;;4958518;28;20208;-86
2021/12/01 04:14:35;;;;;;;9.70;6.17;;;9.00;99.90;;;;;;4958295;28;20187;-85
2021/12/01 04:17:00;;;;;;;12.03;7.03;;;9.10;99.90;;;;;;4958149;28;20175;-86
2021/12/01 04:19:26;;;;;;;9.67;6.30;;;9.00;99.90;;;;;;4958364;28;20220;-85
2021/12/01 04:21:52;;;;;;;9.63;6.10;;;9.10;99.90;;;;;;4958019;28;20233;-85
2021/12/01 04:24:18;;;;;;;10.07;6.77;;;9.20;99.90;;;;;;4957986;28;20216;-86
2021/12/01 04:26:44;;;;;;;10.63;6.03;;;9.20;99.90;;;;;;4958773;28;20179;-86
2021/12/01 04:29:10;;;;;;;9.03;5.33;;;9.20;99.90;;;;;;4977556;28;20245;-85
2021/12/01 04:31:37;;;;;;;9.67;5.33;;;9.20;99.90;;;;;;4977102;28;20214;-86
2021/12/01 04:34:03;;;;;;;6.83;4.93;;;9.20;99.90;;;;;;4963744;28;20216;-85
2021/12/01 04:36:32;;;;;;;6.10;4.60;;;9.20;99.90;;;;;;4984010;28;20192;-85
2021/12/01 04:38:59;;;;;;;6.83;4.37;;;9.10;99.90;;;;;;4957723;28;20630;-85
2021/12/01 04:41:27;;;;;;;4.77;3.63;;;9.10;99.90;;;;;;4958029;28;20185;-85
2021/12/01 04:43:53;;;;;;;4.47;3.30;;;9.00;99.90;;;;;;4957827;28;20222;-86
2021/12/01 04:46:20;;;;;;;5.37;3.60;;;9.00;99.90;;;;;;4957973;28;20545;-85
2021/12/01 04:48:48;;;;;;;4.00;3.03;;;9.00;99.90;;;;;;4958158;28;20522;-85
2021/12/01 04:51:14;;;;;;;4.73;3.23;;;9.00;99.90;;;;;;4957728;28;20197;-85
2021/12/01 04:53:39;;;;;;;3.40;2.60;;;8.90;99.90;;;;;;4957820;28;20671;-85
2021/12/01 04:56:06;;;;;;;4.00;2.53;;;8.90;99.90;;;;;;4958222;28;20179;-85
2021/12/01 04:58:32;;;;;;;5.73;3.17;;;8.90;99.90;;;;;;4970793;28;20611;-85
2021/12/01 05:00:59;;;;;;;3.20;2.77;;;9.00;99.90;;;;;;4957389;28;20644;-86
2021/12/01 05:03:25;;;;;;;4.33;2.63;;;8.90;99.90;;;;;;4961283;28;20221;-85
2021/12/01 05:05:51;;;;;;;4.37;2.90;;;8.90;99.90;;;;;;4966418;28;20218;-86
2021/12/01 05:08:18;;;;;;;7.03;2.77;;;8.90;99.90;;;;;;4971446;28;20583;-85
2021/12/01 05:10:43;;;;;;;4.23;2.83;;;8.80;99.90;;;;;;4957721;28;20229;-86
2021/12/01 05:13:10;;;;;;;6.50;2.87;;;8.80;99.90;;;;;;4970995;28;20191;-86
2021/12/01 05:15:35;;;;;;;4.73;3.47;;;8.80;99.90;;;;;;4957441;28;20186;-85
2021/12/01 05:18:01;;;;;;;4.60;2.80;;;8.90;99.90;;;;;;4957508;28;20187;-86
2021/12/01 05:20:27;;;;;;;5.63;3.10;;;8.80;99.90;;;;;;4962237;28;20202;-86
2021/12/01 05:22:52;;;;;;;3.53;2.93;;;8.80;99.90;;;;;;4965960;28;20343;-85
2021/12/01 05:25:18;;;;;;;3.77;3.00;;;8.90;99.90;;;;;;4957232;28;20210;-86
2021/12/01 05:27:43;;;;;;;4.83;3.43;;;8.90;99.90;;;;;;4957680;28;20180;-85
2021/12/01 05:30:09;;;;;;;5.60;3.10;;;9.10;99.90;;;;;;4957766;28;20559;-85
2021/12/01 05:32:36;;;;;;;6.30;3.43;;;9.10;99.90;;;;;;4976529;28;20242;-85
2021/12/01 05:35:02;;;;;;;4.13;3.07;;;9.00;99.90;;;;;;4963803;28;20182;-86
2021/12/01 05:37:27;;;;;;;6.03;3.20;;;9.00;99.90;;;;;;4957084;28;20185;-85
2021/12/01 05:39:53;;;;;;;6.47;3.50;;;9.00;99.90;;;;;;4967647;28;20206;-86
2021/12/01 05:42:18;;;;;;;6.20;3.63;;;9.00;99.90;;;;;;4964305;28;20182;-87
2021/12/01 05:44:45;;;;;;;6.90;3.70;;;9.00;99.90;;;;;;4957255;28;20216;-87
2021/12/01 05:47:10;;;;;;;7.60;3.43;;;9.00;99.90;;;;;;4957206;28;20234;-87
2021/12/01 05:49:41;;;;;;;5.60;3.03;;;9.10;99.90;;;;;;4957065;28;20598;-87
2021/12/01 05:52:08;;;;;;;6.50;2.60;;;9.10;99.90;;;;;;4957019;28;20191;-86
2021/12/01 05:54:34;;;;;;;5.93;2.57;;;9.00;99.90;;;;;;4959254;28;20623;-86
2021/12/01 05:56:59;;;;;;;3.57;1.97;;;9.10;99.90;;;;;;4968715;28;20194;-86
2021/12/01 05:59:26;;;;;;;4.20;2.10;;;9.10;99.90;;;;;;4957342;28;20198;-86
2021/12/01 06:01:52;;;;;;;3.87;1.90;;;9.20;99.90;;;;;;4957179;28;20177;-87
2021/12/01 06:04:18;;;;;;;1.83;1.73;;;9.20;99.90;;;;;;4957261;28;20675;-86
2021/12/01 06:06:45;;;;;;;2.60;1.97;;;9.20;99.90;;;;;;4957186;28;20187;-86
2021/12/01 06:09:10;;;;;;;2.63;1.60;;;9.20;99.90;;;;;;4957075;28;20204;-87
2021/12/01 06:11:36;;;;;;;3.27;2.43;;;9.20;99.90;;;;;;4958741;28;20261;-86
2021/12/01 06:14:02;;;;;;;3.10;2.33;;;9.30;99.90;;;;;;4968539;28;20267;-86
2021/12/01 06:16:28;;;;;;;2.77;2.20;;;9.20;99.90;;;;;;4960583;28;20190;-85
2021/12/01 06:18:53;;;;;;;3.80;2.40;;;9.20;99.90;;;;;;4966926;28;20191;-86
2021/12/01 06:21:19;;;;;;;5.57;3.07;;;9.20;99.90;;;;;;4968371;28;20248;-86
2021/12/01 06:23:45;;;;;;;3.23;2.33;;;9.20;99.90;;;;;;4960677;28;20245;-86
2021/12/01 06:26:11;;;;;;;2.83;2.40;;;9.30;99.90;;;;;;4960363;28;20179;-86
2021/12/01 06:28:37;;;;;;;3.30;2.83;;;9.30;99.90;;;;;;4962620;28;20178;-87
2021/12/01 06:31:03;;;;;;;3.13;2.43;;;9.30;99.90;;;;;;4979858;28;20270;-87
2021/12/01 06:33:29;;;;;;;2.77;2.17;;;9.30;99.90;;;;;;4979364;28;20266;-87
2021/12/01 06:35:55;;;;;;;2.53;2.30;;;9.30;99.90;;;;;;4973414;28;20184;-87
2021/12/01 06:38:20;;;;;;;3.90;3.13;;;9.40;99.90;;;;;;4972396;28;20184;-87
2021/12/01 06:40:48;;;;;;;2.77;2.30;;;9.40;99.90;;;;;;4961335;28;20218;-86
2021/12/01 06:43:14;;;;;;;5.20;2.20;;;9.40;99.90;;;;;;4959917;28;20201;-87
2021/12/01 06:45:39;;;;;;;2.20;2.00;;;9.40;99.90;;;;;;4960250;28;20184;-87
2021/12/01 06:48:06;;;;;;;6.27;2.50;;;9.40;99.90;;;;;;4959798;28;20654;-87
2021/12/01 06:50:33;;;;;;;2.30;2.10;;;9.40;99.90;;;;;;4960269;28;20224;-87
2021/12/01 06:52:59;;;;;;;2.43;2.20;;;9.40;99.90;;;;;;4959872;28;20685;-86
2021/12/01 06:55:25;;;;;;;3.30;1.90;;;9.40;99.90;;;;;;4960035;28;20636;-86
2021/12/01 06:57:51;;;;;;;3.77;2.37;;;9.50;99.90;;;;;;4959629;28;20188;-86
2021/12/01 07:00:18;;;;;;;2.33;2.13;;;9.40;99.90;;;;;;4966444;28;20185;-87
2021/12/01 07:02:45;;;;;;;2.73;2.13;;;9.50;99.90;;;;;;4965995;28;20179;-87
2021/12/01 07:05:11;;;;;;;2.63;1.90;;;9.50;99.90;;;;;;4959724;28;20203;-87
2021/12/01 07:07:37;;;;;;;4.20;1.80;;;9.60;99.90;;;;;;4959783;28;20190;-87
2021/12/01 07:10:09;;;;;;;2.30;1.80;;;9.60;99.90;;;;;;4962702;28;20594;-87
2021/12/01 07:12:36;;;;;;;1.90;1.70;;;9.60;99.90;;;;;;4969181;28;20270;-87
2021/12/01 07:15:03;;;;;;;2.50;1.80;;;9.70;99.90;;;;;;4961520;28;20216;-88
2021/12/01 07:17:29;;;;;;;2.13;1.87;;;9.60;99.90;;;;;;4968302;28;20203;-87
2021/12/01 07:19:54;;;;;;;2.50;2.10;;;9.70;99.90;;;;;;4958650;28;20271;-87
2021/12/01 07:22:20;;;;;;;2.43;1.80;;;9.60;99.90;;;;;;4958797;28;20238;-86
2021/12/01 07:24:46;;;;;;;3.23;2.43;;;9.60;99.90;;;;;;4958711;28;20210;-86
2021/12/01 07:27:12;;;;;;;2.47;1.77;;;9.60;99.90;;;;;;4961340;28;20193;-85
2021/12/01 07:29:38;;;;;;;2.37;1.80;;;9.60;99.90;;;;;;4959134;28;20182;-87
2021/12/01 07:32:04;;;;;;;2.20;1.70;;;9.60;99.90;;;;;;4953773;28;20171;-88
2021/12/01 07:34:30;;;;;;;2.87;1.70;;;9.70;99.90;;;;;;4959102;28;20180;-86
2021/12/01 07:36:56;;;;;;;6.23;1.90;;;9.70;99.90;;;;;;4959078;28;20232;-85
2021/12/01 07:39:22;;;;;;;2.70;1.60;;;9.60;99.90;;;;;;4958570;28;20190;-86
2021/12/01 07:41:49;;;;;;;3.80;1.70;;;9.70;99.90;;;;;;4958877;28;20561;-86
2021/12/01 07:44:15;;;;;;;7.03;2.13;;;9.70;99.90;;;;;;4958531;28;20266;-86
2021/12/01 07:46:42;;;;;;;10.70;2.40;;;9.80;99.90;;;;;;4958978;28;20176;-86
2021/12/01 07:49:07;;;;;;;6.17;1.83;;;9.70;99.90;;;;;;4958645;28;20191;-87
2021/12/01 07:51:33;;;;;;;3.10;2.33;;;9.60;99.90;;;;;;4958124;28;20570;-86
2021/12/01 07:53:58;;;;;;;2.77;1.77;;;9.50;99.90;;;;;;4958166;28;20656;-86
2021/12/01 07:56:24;;;;;;;4.20;2.23;;;9.40;99.90;;;;;;4958480;28;20257;-85
2021/12/01 07:58:50;;;;;;;4.23;1.90;;;9.30;99.90;;;;;;4958233;28;20223;-85
2021/12/01 08:01:16;;;;;;;3.10;2.23;;;9.40;99.90;;;;;;4962448;28;20718;-85
2021/12/01 08:03:41;;;;;;;2.87;2.07;;;9.30;99.90;;;;;;4957849;28;20220;-85
2021/12/01 08:06:08;;;;;;;2.77;2.13;;;9.30;99.90;;;;;;4950413;28;20178;-88
2021/12/01 08:08:34;;;;;;;4.57;2.73;;;9.30;99.90;;;;;;4956955;28;20178;-86
2021/12/01 08:11:00;;;;;;;3.70;2.53;;;9.40;99.90;;;;;;4952105;28;20173;-85
2021/12/01 08:13:26;;;;;;;9.70;2.87;;;9.50;99.90;;;;;;4959521;28;20184;-85
2021/12/01 08:15:51;;;;;;;3.17;2.47;;;9.50;99.90;;;;;;4957947;28;20189;-85
2021/12/01 08:18:19;;;;;;;3.23;2.43;;;9.60;99.90;;;;;;4958023;28;20185;-85
2021/12/01 08:20:45;;;;;;;4.20;3.00;;;9.60;99.90;;;;;;4957095;28;20219;-85
2021/12/01 08:23:11;;;;;;;4.47;2.73;;;9.70;99.90;;;;;;4950858;28;20214;-85
2021/12/01 08:25:37;;;;;;;4.17;3.20;;;9.60;99.90;;;;;;4957567;28;20270;-86
2021/12/01 08:28:04;;;;;;;4.40;3.27;;;9.70;99.90;;;;;;4957548;28;20639;-85
2021/12/01 08:30:31;;;;;;;3.77;2.83;;;9.70;99.90;;;;;;4957952;28;20186;-85
2021/12/01 08:32:57;;;;;;;5.20;2.50;;;9.70;99.90;;;;;;4962287;28;20206;-85
2021/12/01 08:35:24;;;;;;;3.47;2.30;;;9.80;99.90;;;;;;4962311;28;20191;-88
2021/12/01 08:37:49;;;;;;;3.30;2.53;;;9.80;99.90;;;;;;4957559;28;20195;-85
2021/12/01 08:40:16;;;;;;;6.90;3.00;;;9.80;99.90;;;;;;4956844;28;20191;-86
2021/12/01 08:42:42;;;;;;;3.73;2.60;;;9.80;99.90;;;;;;4963343;28;20204;-85
2021/12/01 08:45:08;;;;;;;6.30;2.87;;;9.70;99.90;;;;;;4970828;28;20215;-85
2021/12/01 08:47:34;;;;;;;3.07;2.60;;;9.70;99.90;;;;;;4957545;28;20192;-85
2021/12/01 08:50:00;;;;;;;5.53;2.60;;;9.80;99.90;;;;;;4957172;28;20192;-85
2021/12/01 08:52:26;;;;;;;4.90;2.43;;;9.80;99.90;;;;;;4965427;28;20208;-85
2021/12/01 08:54:52;;;;;;;2.70;2.40;;;9.80;99.90;;;;;;4958756;28;20631;-85
2021/12/01 08:57:17;;;;;;;4.73;2.67;;;9.70;99.90;;;;;;4957050;28;20268;-85
2021/12/01 08:59:44;;;;;;;17.10;4.10;;;9.80;99.90;;;;;;4960024;28;20560;-85
2021/12/01 09:02:11;;;;;;;4.47;3.20;;;9.70;99.90;;;;;;4950240;28;20185;-84
2021/12/01 09:04:36;;;;;;;4.27;3.23;;;9.70;99.90;;;;;;4970465;28;20305;-84
2021/12/01 09:07:03;;;;;;;3.57;3.23;;;9.60;99.90;;;;;;4956809;28;20263;-84
2021/12/01 09:09:29;;;;;;;3.50;3.07;;;9.70;99.90;;;;;;4955203;28;20193;-85
2021/12/01 09:11:55;;;;;;;5.03;3.83;;;9.70;99.90;;;;;;4957953;28;20200;-85
2021/12/01 09:14:26;;;;;;;5.40;3.50;;;9.80;99.90;;;;;;4956948;28;20587;-85
2021/12/01 09:16:53;;;;;;;5.67;4.30;;;9.90;99.90;;;;;;4956932;28;20180;-84
2021/12/01 09:19:19;;;;;;;4.87;3.87;;;10.00;99.90;;;;;;4956627;28;20227;-85
2021/12/01 09:21:47;;;;;;;4.23;3.80;;;9.90;99.90;;;;;;4944336;28;20289;-84
2021/12/01 09:24:15;;;;;;;6.00;3.90;;;10.00;99.90;;;;;;4956292;28;20214;-83
2021/12/01 09:26:42;;;;;;;4.10;3.70;;;10.10;99.90;;;;;;4957390;28;20179;-85
2021/12/01 09:29:11;;;;;;;5.77;4.13;;;10.10;99.90;;;;;;4958961;28;20187;-86
2021/12/01 09:31:38;;;;;;;4.67;3.87;;;10.10;99.90;;;;;;4957245;28;20571;-84
2021/12/01 09:34:04;;;;;;;6.60;3.83;;;10.00;99.90;;;;;;4958558;28;20275;-85
2021/12/01 09:36:30;;;;;;;6.83;4.70;;;9.90;99.90;;;;;;4956963;28;20268;-85
2021/12/01 09:38:56;;;;;;;5.97;4.43;;;10.00;99.90;;;;;;4958537;28;20270;-84
2021/12/01 09:41:23;;;;;;;7.57;4.77;;;10.00;99.90;;;;;;4956998;28;20238;-84
2021/12/01 09:43:49;;;;;;;8.20;2.63;;;10.00;99.90;;;;;;4968227;28;20571;-85
2021/12/01 09:46:15;;;;;;;8.90;2.00;;;10.00;99.90;;;;;;4959144;28;20214;-84
2021/12/01 09:48:43;;;;;;;2.63;1.47;;;9.90;99.90;;;;;;4956880;28;20178;-84
2021/12/01 09:51:10;;;;;;;2.50;1.50;;;9.70;99.90;;;;;;4973508;28;20628;-84
2021/12/01 09:53:36;;;;;;;3.57;2.10;;;9.70;99.90;;;;;;4968534;28;20207;-85
2021/12/01 09:56:02;;;;;;;5.53;2.00;;;9.60;99.90;;;;;;4983261;28;20554;-84
2021/12/01 09:58:31;;;;;;;5.47;1.93;;;9.60;99.90;;;;;;4947487;28;20209;-85
2021/12/01 10:01:00;;;;;;;5.50;2.17;;;9.70;99.90;;;;;;4972576;28;20182;-85
2021/12/01 10:03:27;;;;;;;4.30;1.67;;;9.70;99.90;;;;;;4974953;28;20209;-85
2021/12/01 10:06:13;;;;;;;4.47;2.07;;;9.70;99.90;;;;;;4971329;28;20314;-85
2021/12/01 10:08:45;;;;;;;6.07;2.47;;;9.80;99.90;;;;;;4974596;28;20190;-85
2021/12/01 10:11:17;;;;;;;7.73;2.30;;;9.90;99.90;;;;;;4960551;28;20232;-85
2021/12/01 10:13:46;;;;;;;9.13;2.23;;;9.90;99.90;;;;;;4960629;28;20278;-85
2021/12/01 10:16:14;;;;;;;7.33;2.00;;;9.80;99.90;;;;;;4971861;28;20702;-85
2021/12/01 10:18:44;;;;;;;6.40;1.80;;;9.80;99.90;;;;;;4961643;28;20199;-85
2021/12/01 10:21:11;;;;;;;6.17;2.10;;;9.90;99.90;;;;;;4960096;28;20246;-85
2021/12/01 10:23:41;;;;;;;6.17;1.40;;;10.00;99.90;;;;;;4974096;28;20210;-84
2021/12/01 10:26:19;;;;;;;11.53;3.53;;;10.00;99.90;;;;;;4960150;28;20176;-87
2021/12/01 10:28:55;;;;;;;5.30;1.73;;;9.90;99.90;;;;;;4963425;28;20211;-87
2021/12/01 10:31:40;;;;;;;9.60;1.83;;;10.00;99.90;;;;;;4969373;28;20269;-86
2021/12/01 10:34:32;;;;;;;7.23;1.90;;;10.10;99.90;;;;;;4960058;28;20188;-86
2021/12/01 10:37:10;;;;;;;7.43;2.00;;;10.20;99.90;;;;;;4960929;28;20189;-86
2021/12/01 10:39:37;;;;;;;11.83;2.50;;;10.40;99.90;;;;;;4971329;28;20549;-86
2021/12/01 10:42:05;;;;;;;7.53;2.43;;;10.20;99.90;;;;;;4970579;28;20245;-86
2021/12/01 10:44:33;;;;;;;6.03;1.90;;;10.10;99.90;;;;;;4962431;28;20765;-85
2021/12/01 10:47:10;;;;;;;10.80;2.70;;;9.90;99.90;;;;;;4959934;28;20193;-84
2021/12/01 10:49:38;;;;;;;9.17;1.83;;;9.60;99.90;;;;;;4962712;28;20234;-85
2021/12/01 10:52:04;;;;;;;8.30;1.63;;;9.50;99.90;;;;;;4969724;28;20580;-84
2021/12/01 10:54:30;;;;;;;10.73;2.10;;;9.50;99.90;;;;;;4959622;28;20188;-86
2021/12/01 10:57:22;;;;;;;9.00;1.70;;;9.70;99.90;;;;;;4959639;28;20266;-85
2021/12/01 10:59:52;;;;;;;13.10;2.60;;;9.70;99.90;;;;;;4959815;28;20241;-85
2021/12/01 11:02:19;;;;;;;9.70;1.80;;;9.60;99.90;;;;;;4959264;28;20183;-86
2021/12/01 11:04:50;;;;;;;6.50;1.67;;;9.60;99.90;;;;;;4973561;28;20220;-84
2021/12/01 11:07:31;;;;;;;10.37;1.73;;;9.60;99.90;;;;;;4959356;28;20675;-89
2021/12/01 11:10:09;;;;;;;6.13;1.57;;;9.50;99.90;;;;;;4959628;28;20190;-88
2021/12/01 11:12:42;;;;;;;5.17;1.53;;;9.60;99.90;;;;;;4960286;28;20655;-90
2021/12/01 11:15:22;;;;;;;8.47;1.50;;;9.50;99.90;;;;;;4959551;28;20179;-89
2021/12/01 11:17:49;;;;;;;9.37;1.60;;;9.50;99.90;;;;;;4959231;28;20246;-90
2021/12/01 11:20:42;;;;;;;6.37;1.47;;;9.40;99.90;;;;;;4959488;28;20194;-89
2021/12/01 11:23:14;;;;;;;8.73;1.90;;;9.50;99.90;;;;;;4959184;28;20194;-88
2021/12/01 11:25:41;;;;;;;8.27;1.47;;;9.60;99.90;;;;;;4959449;28;20537;-87
2021/12/01 11:28:09;;;;;;;8.70;1.40;;;9.70;99.90;;;;;;4959416;28;20183;-87
2021/12/01 11:30:36;;;;;;;6.27;1.17;;;9.80;99.90;;;;;;4963169;28;20188;-88
2021/12/01 11:33:02;;;;;;;7.77;1.27;;;9.90;99.90;;;;;;4968566;28;20653;-90
2021/12/01 11:35:29;;;;;;;6.70;1.50;;;9.90;99.90;;;;;;4958966;28;20199;-87
2021/12/01 11:37:55;;;;;;;5.17;1.10;;;10.00;99.90;;;;;;4959197;28;20213;-87
2021/12/01 11:40:40;;;;;;;5.37;0.97;;;10.20;99.90;;;;;;4969629;28;20212;-88
2021/12/01 11:43:09;;;;;;;7.83;1.07;;;10.40;99.90;;;;;;4959128;28;20206;-88
2021/12/01 11:45:40;;;;;;;4.63;1.17;;;10.40;99.90;;;;;;4959073;28;20224;-87
2021/12/01 11:48:30;;;;;;;4.90;1.00;;;10.40;99.90;;;;;;4972345;28;20235;-88
2021/12/01 11:51:06;;;;;;;6.23;0.90;;;10.50;99.90;;;;;;4975761;28;20198;-87
2021/12/01 11:53:37;;;;;;;5.67;0.97;;;10.50;99.90;;;;;;4958994;28;20244;-88
2021/12/01 11:56:13;;;;;;;4.83;1.10;;;10.50;99.90;;;;;;4958919;28;20183;-87
2021/12/01 11:58:44;;;;;;;4.93;1.10;;;10.50;99.90;;;;;;4959332;28;20208;-87
2021/12/01 12:01:29;;;;;;;3.47;0.80;;;10.40;99.90;;;;;;4958482;28;20183;-87
2021/12/01 12:04:01;;;;;;;5.00;0.83;;;10.50;99.90;;;;;;4951606;28;20214;-87
2021/12/01 12:06:31;;;;;;;3.83;1.07;;;10.50;99.90;;;;;;4972312;28;20193;-89
2021/12/01 12:08:58;;;;;;;3.50;1.00;;;10.50;99.90;;;;;;4959137;28;20190;-90
2021/12/01 12:11:45;;;;;;;4.13;0.83;;;10.60;99.90;;;;;;4958901;28;20189;-86
2021/12/01 12:14:30;;;;;;;3.47;0.70;;;10.50;99.90;;;;;;4967361;28;20181;-90
2021/12/01 12:17:19;;;;;;;2.30;0.80;;;10.40;99.90;;;;;;4961067;28;20265;-89
2021/12/01 12:19:51;;;;;;;1.90;1.00;;;10.30;99.90;;;;;;4959253;28;20221;-88
2021/12/01 12:22:21;;;;;;;5.47;1.80;;;10.30;99.90;;;;;;4957943;28;20591;-88
2021/12/01 12:24:52;;;;;;;5.53;1.00;;;10.10;99.90;;;;;;4958324;28;20232;-86
2021/12/01 12:27:33;;;;;;;3.87;1.10;;;10.10;99.90;;;;;;4957994;28;20222;-87
2021/12/01 12:29:59;;;;;;;5.97;1.00;;;10.10;99.90;;;;;;4957710;28;20654;-87
2021/12/01 12:32:29;;;;;;;3.03;0.70;;;10.10;99.90;;;;;;4958028;28;20260;-84
2021/12/01 12:34:58;;;;;;;5.73;1.00;;;10.20;99.90;;;;;;4958167;28;20231;-86
2021/12/01 12:37:26;;;;;;;2.10;0.70;;;10.10;99.90;;;;;;4957919;28;20300;-87
2021/12/01 12:39:53;;;;;;;5.77;0.90;;;10.00;99.90;;;;;;4957968;28;20193;-84
2021/12/01 12:42:20;;;;;;;3.07;0.70;;;10.00;99.90;;;;;;4958165;28;20190;-84
2021/12/01 12:44:50;;;;;;;6.03;0.90;;;10.10;99.90;;;;;;4957747;28;20225;-87
2021/12/01 12:47:23;;;;;;;6.33;1.13;;;10.10;99.90;;;;;;4957875;28;20216;-84
2021/12/01 12:49:55;;;;;;;1.77;0.90;;;10.10;99.90;;;;;;4957525;28;20189;-87
2021/12/01 12:52:27;;;;;;;5.10;0.90;;;10.10;99.90;;;;;;4957976;28;20189;-84
2021/12/01 12:54:56;;;;;;;7.57;1.03;;;10.10;99.90;;;;;;4957593;28;20207;-86
2021/12/01 12:57:24;;;;;;;3.60;0.73;;;10.00;99.90;;;;;;4957170;28;20334;-86
2021/12/01 13:00:09;;;;;;;2.80;0.70;;;9.90;99.90;;;;;;4957565;28;20182;-86
2021/12/01 13:02:35;;;;;;;2.80;0.93;;;9.90;99.90;;;;;;4957497;28;20191;-86
2021/12/01 13:05:02;;;;;;;8.83;1.93;;;10.10;99.90;;;;;;4957342;28;20336;-86